createdAt,value
2022-10-13T00:01:33.376Z,101542.00
2022-10-13T00:04:01.889Z,101545.59
2022-10-13T00:06:32.190Z,101539.66
2022-10-13T00:09:00.912Z,101540.69
2022-10-13T00:11:31.648Z,101534.63
2022-10-13T00:14:03.758Z,101538.94
2022-10-13T00:16:35.170Z,101535.56
2022-10-13T00:19:03.985Z,101534.78
2022-10-13T00:21:33.930Z,101527.66
2022-10-13T00:24:02.439Z,101538.13
2022-10-13T00:26:31.281Z,101521.72
2022-10-13T00:28:59.925Z,101527.03
2022-10-13T00:31:32.067Z,101528.09
2022-10-13T00:34:02.588Z,101527.44
2022-10-13T00:36:31.259Z,101538.78
2022-10-13T00:39:01.576Z,101534.50
2022-10-13T00:41:30.334Z,101526.69
2022-10-13T00:44:01.880Z,101524.97
2022-10-13T00:46:34.199Z,101521.63
2022-10-13T00:49:08.381Z,101525.09
2022-10-13T00:51:43.291Z,101512.22
2022-10-13T00:54:18.858Z,101522.47
2022-10-13T00:56:50.696Z,101525.00
2022-10-13T00:59:27.170Z,101519.88
2022-10-13T01:01:58.820Z,101512.09
2022-10-13T01:04:34.140Z,101512.22
2022-10-13T01:07:04.524Z,101514.03
2022-10-13T01:09:37.807Z,101508.09
2022-10-13T01:12:18.691Z,101511.69
2022-10-13T01:14:56.018Z,101503.97
2022-10-13T01:17:38.004Z,101506.63
2022-10-13T01:20:39.175Z,101510.91
2022-10-13T01:23:34.874Z,101502.34
2022-10-13T01:26:44.984Z,101500.75
2022-10-13T01:29:55.348Z,101505.16
2022-10-13T01:32:32.637Z,101500.84
2022-10-13T01:35:10.733Z,101502.44
2022-10-13T01:37:49.030Z,101492.06
2022-10-13T01:40:26.983Z,101492.84
2022-10-13T01:43:03.016Z,101494.69
2022-10-13T01:45:39.903Z,101498.41
2022-10-13T01:48:12.205Z,101496.78
2022-10-13T01:50:45.029Z,101498.47
2022-10-13T01:53:18.097Z,101469.25
2022-10-13T01:55:55.574Z,101495.84
2022-10-13T01:58:26.159Z,101489.84
2022-10-13T02:01:17.751Z,101490.81
2022-10-13T02:04:02.303Z,101490.97
2022-10-13T02:06:37.974Z,101490.97
2022-10-13T02:09:15.590Z,101483.22
2022-10-13T02:11:52.674Z,101477.22
2022-10-13T02:14:27.534Z,101477.28
2022-10-13T02:17:03.478Z,101475.59
2022-10-13T02:19:37.181Z,101471.25
2022-10-13T02:22:08.002Z,101465.13
2022-10-13T02:24:36.932Z,101472.94
2022-10-13T02:27:07.818Z,101470.41
2022-10-13T02:29:50.210Z,101470.41
2022-10-13T02:32:20.497Z,101466.06
2022-10-13T02:34:49.857Z,101463.28
2022-10-13T02:37:18.852Z,101459.88
2022-10-13T02:39:47.432Z,101464.13
2022-10-13T02:42:19.355Z,101460.59
2022-10-13T02:44:48.404Z,101463.06
2022-10-13T02:47:16.991Z,101469.09
2022-10-13T02:49:47.046Z,101467.47
2022-10-13T02:52:15.688Z,101466.56
2022-10-13T02:54:44.208Z,101464.78
2022-10-13T02:57:12.958Z,101466.47
2022-10-13T02:59:45.421Z,101467.38
2022-10-13T03:02:14.321Z,101464.78
2022-10-13T03:04:42.848Z,101466.47
2022-10-13T03:07:13.240Z,101465.63
2022-10-13T03:09:41.976Z,101460.44
2022-10-13T03:12:10.829Z,101469.97
2022-10-13T03:14:39.486Z,101458.59
2022-10-13T03:17:13.149Z,101461.16
2022-10-13T03:19:42.053Z,101462.09
2022-10-13T03:22:15.718Z,101456.22
2022-10-13T03:24:44.292Z,101453.63
2022-10-13T03:27:12.982Z,101450.97
2022-10-13T03:29:41.690Z,101457.03
2022-10-13T03:32:10.294Z,101444.84
2022-10-13T03:34:39.008Z,101449.06
2022-10-13T03:37:07.540Z,101456.81
2022-10-13T03:39:44.690Z,101451.59
2022-10-13T03:42:14.578Z,101453.25
2022-10-13T03:44:43.073Z,101454.13
2022-10-13T03:47:11.795Z,101447.22
2022-10-13T03:49:40.343Z,101452.31
2022-10-13T03:52:08.913Z,101446.19
2022-10-13T03:54:37.641Z,101441.88
2022-10-13T03:57:08.948Z,101440.94
2022-10-13T03:59:37.479Z,101448.72
2022-10-13T04:02:06.331Z,101448.63
2022-10-13T04:04:36.162Z,101454.75
2022-10-13T04:07:04.785Z,101453.91
2022-10-13T04:09:33.659Z,101450.38
2022-10-13T04:12:02.163Z,101457.44
2022-10-13T04:14:32.069Z,101463.44
2022-10-13T04:17:10.007Z,101461.06
2022-10-13T04:19:39.074Z,101453.38
2022-10-13T04:22:07.617Z,101462.03
2022-10-13T04:24:37.447Z,101456.03
2022-10-13T04:27:06.065Z,101467.47
2022-10-13T04:29:35.927Z,101467.47
2022-10-13T04:32:04.899Z,101467.59
2022-10-13T04:34:33.426Z,101467.72
2022-10-13T04:37:01.935Z,101465.94
2022-10-13T04:39:30.751Z,101470.31
2022-10-13T04:41:59.234Z,101469.41
2022-10-13T04:44:28.011Z,101468.56
2022-10-13T04:46:58.008Z,101467.69
2022-10-13T04:49:26.710Z,101474.69
2022-10-13T04:51:55.427Z,101466.75
2022-10-13T04:54:23.965Z,101465.31
2022-10-13T04:56:52.695Z,101473.16
2022-10-13T04:59:21.263Z,101470.59
2022-10-13T05:01:49.763Z,101473.31
2022-10-13T05:04:19.905Z,101471.59
2022-10-13T05:07:16.061Z,101476.78
2022-10-13T05:09:37.365Z,101473.16
2022-10-13T05:12:12.172Z,101468.94
2022-10-13T05:14:41.050Z,101475.94
2022-10-13T05:17:09.749Z,101474.19
2022-10-13T05:19:39.809Z,101463.53
2022-10-13T05:22:08.505Z,101471.34
2022-10-13T05:24:40.896Z,101470.53
2022-10-13T05:27:13.465Z,101468.75
2022-10-13T05:29:42.310Z,101463.59
2022-10-13T05:32:10.846Z,101469.44
2022-10-13T05:34:40.700Z,101461.56
2022-10-13T05:37:09.428Z,101459.69
2022-10-13T05:39:37.986Z,101471.69
2022-10-13T05:42:06.768Z,101470.75
2022-10-13T05:44:36.362Z,101469.81
2022-10-13T05:47:07.624Z,101480.88
2022-10-13T05:49:39.777Z,101476.44
2022-10-13T05:52:13.682Z,101477.06
2022-10-13T05:54:47.307Z,101478.72
2022-10-13T05:57:22.453Z,101476.97
2022-10-13T05:59:58.218Z,101471.66
2022-10-13T06:02:35.015Z,101475.00
2022-10-13T06:05:06.829Z,101473.00
2022-10-13T06:07:37.098Z,101492.81
2022-10-13T06:10:07.247Z,101494.38
2022-10-13T06:12:36.248Z,101491.56
2022-10-13T06:15:05.595Z,101492.22
2022-10-13T06:17:37.309Z,101494.50
2022-10-13T06:20:07.740Z,101495.13
2022-10-13T06:22:40.053Z,101491.31
2022-10-13T06:25:10.485Z,101497.22
2022-10-13T06:27:39.233Z,101493.44
2022-10-13T06:30:09.689Z,101496.56
2022-10-13T06:32:39.023Z,101491.88
2022-10-13T06:35:09.131Z,101493.38
2022-10-13T06:37:39.398Z,101495.69
2022-10-13T06:40:13.121Z,101489.47
2022-10-13T06:42:41.963Z,101489.03
2022-10-13T06:45:12.130Z,101489.56
2022-10-13T06:47:42.379Z,101495.97
2022-10-13T06:50:11.468Z,101487.16
2022-10-13T06:52:41.502Z,101492.16
2022-10-13T06:55:10.761Z,101483.78
2022-10-13T06:57:39.589Z,101491.75
2022-10-13T07:00:11.122Z,101481.09
2022-10-13T07:02:40.609Z,101491.22
2022-10-13T07:05:10.120Z,101485.53
2022-10-13T07:07:38.921Z,101485.44
2022-10-13T07:10:10.216Z,101471.69
2022-10-13T07:12:39.963Z,101471.78
2022-10-13T07:15:10.074Z,101471.13
2022-10-13T07:17:39.201Z,101468.00
2022-10-13T07:20:09.507Z,101471.28
2022-10-13T07:22:38.041Z,101464.47
2022-10-13T07:25:09.883Z,101457.94
2022-10-13T07:27:40.828Z,101453.69
2022-10-13T07:30:10.323Z,101458.94
2022-10-13T07:32:39.429Z,101456.31
2022-10-13T07:35:08.826Z,101455.00
2022-10-13T07:37:37.746Z,101454.53
2022-10-13T07:40:09.976Z,101456.56
2022-10-13T07:42:38.555Z,101453.88
2022-10-13T07:45:09.397Z,101444.50
2022-10-13T07:47:37.981Z,101439.38
2022-10-13T07:50:07.786Z,101438.59
2022-10-13T07:52:37.163Z,101434.13
2022-10-13T07:55:08.893Z,101433.78
2022-10-13T07:57:37.806Z,101434.88
2022-10-13T08:00:08.537Z,101436.78
2022-10-13T08:02:42.961Z,101438.34
2022-10-13T08:05:11.518Z,101438.28
2022-10-13T08:07:40.293Z,101440.06
2022-10-13T08:10:11.277Z,101434.78
2022-10-13T08:12:40.573Z,101440.19
2022-10-13T08:15:11.959Z,101431.31
2022-10-13T08:17:40.804Z,101435.69
2022-10-13T08:20:10.738Z,101427.19
2022-10-13T08:22:39.520Z,101419.81
2022-10-13T08:25:11.215Z,101416.19
2022-10-13T08:27:50.644Z,101420.81
2022-10-13T08:30:20.675Z,101424.72
2022-10-13T08:32:49.550Z,101421.31
2022-10-13T08:35:18.266Z,101419.69
2022-10-13T08:37:46.841Z,101410.75
2022-10-13T08:40:21.849Z,101411.56
2022-10-13T08:42:51.057Z,101411.56
2022-10-13T08:45:40.928Z,101408.91
2022-10-13T08:48:17.161Z,101412.56
2022-10-13T08:50:50.389Z,101414.22
2022-10-13T08:53:29.121Z,101413.06
2022-10-13T08:56:03.863Z,101403.75
2022-10-13T08:58:38.378Z,101403.13
2022-10-13T09:01:15.912Z,101397.38
2022-10-13T09:03:55.710Z,101406.97
2022-10-13T09:06:28.831Z,101399.03
2022-10-13T09:09:01.907Z,101398.66
2022-10-13T09:11:35.954Z,101397.66
2022-10-13T09:14:08.031Z,101396.22
2022-10-13T09:16:40.907Z,101393.41
2022-10-13T09:19:23.499Z,101399.59
2022-10-13T09:21:54.469Z,101390.50
2022-10-13T09:24:26.082Z,101391.63
2022-10-13T09:27:12.761Z,101392.72
2022-10-13T09:29:43.127Z,101395.22
2022-10-13T09:32:19.986Z,101390.16
2022-10-13T09:34:49.815Z,101394.00
2022-10-13T09:37:22.302Z,101395.50
2022-10-13T09:40:12.993Z,101397.06
2022-10-13T09:42:43.165Z,101385.84
2022-10-13T09:45:18.720Z,101386.59
2022-10-13T09:47:54.249Z,101389.84
2022-10-13T09:50:26.759Z,101379.50
2022-10-13T09:53:16.396Z,101369.13
2022-10-13T09:55:48.543Z,101370.59
2022-10-13T09:58:32.137Z,101366.16
2022-10-13T10:01:01.318Z,101370.19
2022-10-13T10:03:38.201Z,101363.72
2022-10-13T10:06:12.414Z,101356.88
2022-10-13T10:09:02.869Z,101350.25
2022-10-13T10:11:40.530Z,101353.44
2022-10-13T10:14:22.892Z,101351.00
2022-10-13T10:17:01.383Z,101341.81
2022-10-13T10:19:48.848Z,101348.16
2022-10-13T10:22:31.492Z,101336.41
2022-10-13T10:25:27.311Z,101329.78
2022-10-13T10:28:42.549Z,101317.72
2022-10-13T10:31:33.941Z,101315.34
2022-10-13T10:34:28.585Z,101301.41
2022-10-13T10:37:22.725Z,101303.44
2022-10-13T10:40:07.973Z,101310.94
2022-10-13T10:43:04.350Z,101314.72
2022-10-13T10:45:39.540Z,101308.84
2022-10-13T10:48:23.039Z,101314.56
2022-10-13T10:50:54.327Z,101293.97
2022-10-13T10:53:35.151Z,101309.09
2022-10-13T10:56:17.033Z,101290.56
2022-10-13T10:59:03.291Z,101295.38
2022-10-13T11:01:42.946Z,101296.13
2022-10-13T11:04:41.911Z,101290.09
2022-10-13T11:07:35.942Z,101283.53
2022-10-13T11:10:22.001Z,101279.09
2022-10-13T11:13:27.762Z,101271.56
2022-10-13T11:15:56.644Z,101268.34
2022-10-13T11:19:25.869Z,101264.09
2022-10-13T11:22:23.846Z,101263.13
2022-10-13T11:25:24.729Z,101252.03
2022-10-13T11:27:53.519Z,101245.00
2022-10-13T11:30:44.854Z,101248.50
2022-10-13T11:33:54.832Z,101244.25
2022-10-13T11:36:56.897Z,101247.88
2022-10-13T11:40:10.316Z,101243.13
2022-10-13T11:43:39.047Z,101241.97
2022-10-13T11:46:24.039Z,101235.34
2022-10-13T11:49:32.642Z,101234.56
2022-10-13T11:52:30.342Z,101230.06
2022-10-13T11:55:12.373Z,101232.72
2022-10-13T11:57:42.640Z,101225.97
2022-10-13T12:00:21.113Z,101222.53
2022-10-13T12:02:53.487Z,101216.28
2022-10-13T12:05:26.505Z,101212.28
2022-10-13T12:08:00.302Z,101206.09
2022-10-13T12:10:34.889Z,101214.28
2022-10-13T12:13:06.310Z,101208.13
2022-10-13T12:15:38.945Z,101201.53
2022-10-13T12:18:23.951Z,101205.47
2022-10-13T12:20:58.302Z,101203.31
2022-10-13T12:23:27.974Z,101189.09
2022-10-13T12:25:59.180Z,101193.56
2022-10-13T12:28:31.903Z,101189.97
2022-10-13T12:31:01.726Z,101181.50
2022-10-13T12:33:35.382Z,101183.75
2022-10-13T12:36:18.787Z,101178.69
2022-10-13T12:38:53.626Z,101188.22
2022-10-13T12:41:28.636Z,101190.75
2022-10-13T12:44:01.144Z,101183.31
2022-10-13T12:46:45.129Z,101185.56
2022-10-13T12:49:17.131Z,101182.28
2022-10-13T12:51:49.313Z,101163.34
2022-10-13T12:54:24.478Z,101161.88
2022-10-13T12:57:00.347Z,101163.22
2022-10-13T12:59:31.848Z,101153.72
2022-10-13T13:02:04.640Z,101151.41
2022-10-13T13:04:43.887Z,101157.13
2022-10-13T13:07:33.845Z,101158.06
2022-10-13T13:10:19.600Z,101161.66
2022-10-13T13:12:51.185Z,101155.72
2022-10-13T13:15:33.685Z,101150.22
2022-10-13T13:18:32.128Z,101154.47
2022-10-13T13:21:01.998Z,101148.09
2022-10-13T13:23:34.366Z,101146.31
2022-10-13T13:26:14.385Z,101141.13
2022-10-13T13:28:48.412Z,101152.66
2022-10-13T13:31:19.959Z,101139.66
2022-10-13T13:33:49.453Z,101137.53
2022-10-13T13:36:21.681Z,101127.16
2022-10-13T13:38:55.187Z,101128.84
2022-10-13T13:41:27.716Z,101124.09
2022-10-13T13:43:57.974Z,101130.16
2022-10-13T13:46:29.134Z,101136.59
2022-10-13T13:48:57.647Z,101124.53
2022-10-13T13:51:26.270Z,101126.97
2022-10-13T13:53:55.066Z,101120.50
2022-10-13T13:56:23.601Z,101121.25
2022-10-13T13:58:52.353Z,101123.47
2022-10-13T14:01:22.848Z,101122.41
2022-10-13T14:03:51.407Z,101126.63
2022-10-13T14:06:23.003Z,101117.66
2022-10-13T14:08:51.711Z,101126.44
2022-10-13T14:11:21.338Z,101119.97
2022-10-13T14:13:50.257Z,101129.09
2022-10-13T14:16:28.160Z,101122.94
2022-10-13T14:18:58.232Z,101123.78
2022-10-13T14:21:28.235Z,101123.34
2022-10-13T14:23:58.943Z,101115.44
2022-10-13T14:26:27.717Z,101112.88
2022-10-13T14:28:58.437Z,101117.84
2022-10-13T14:31:28.761Z,101123.81
2022-10-13T14:33:57.971Z,101113.63
2022-10-13T14:36:29.493Z,101111.09
2022-10-13T14:38:58.228Z,101118.38
2022-10-13T14:41:27.361Z,101115.09
2022-10-13T14:43:57.791Z,101110.66
2022-10-13T14:46:28.315Z,101114.28
2022-10-13T14:48:58.457Z,101112.97
2022-10-13T14:51:27.238Z,101106.94
2022-10-13T14:53:56.384Z,101113.31
2022-10-13T14:56:29.667Z,101108.06
2022-10-13T14:59:00.961Z,101113.47
2022-10-13T15:01:41.390Z,101108.38
2022-10-13T15:04:10.957Z,101113.25
2022-10-13T15:06:41.112Z,101105.50
2022-10-13T15:09:12.347Z,101099.16
2022-10-13T15:11:40.940Z,101101.41
2022-10-13T15:14:09.947Z,101100.56
2022-10-13T15:16:40.068Z,101082.31
2022-10-13T15:19:08.817Z,101090.47
2022-10-13T15:21:37.540Z,101086.91
2022-10-13T15:24:06.789Z,101071.09
2022-10-13T15:26:36.864Z,101065.38
2022-10-13T15:29:05.586Z,101068.59
2022-10-13T15:31:34.302Z,101061.38
2022-10-13T15:34:04.379Z,101067.59
2022-10-13T15:36:33.126Z,101068.19
2022-10-13T15:39:01.903Z,101071.28
2022-10-13T15:41:30.445Z,101056.13
2022-10-13T15:43:59.387Z,101063.84
2022-10-13T15:46:29.818Z,101059.31
2022-10-13T15:48:59.981Z,101066.47
2022-10-13T15:51:30.324Z,101061.38
2022-10-13T15:53:58.943Z,101061.03
2022-10-13T15:56:27.739Z,101051.91
2022-10-13T15:58:56.277Z,101053.31
2022-10-13T16:01:25.268Z,101055.84
2022-10-13T16:03:55.477Z,101068.75
2022-10-13T16:06:24.845Z,101059.41
2022-10-13T16:08:55.146Z,101067.38
2022-10-13T16:11:24.409Z,101077.19
2022-10-13T16:13:53.972Z,101072.41
2022-10-13T16:16:23.257Z,101078.44
2022-10-13T16:18:52.419Z,101071.13
2022-10-13T16:21:25.819Z,101070.03
2022-10-13T16:23:56.630Z,101067.06
2022-10-13T16:26:25.779Z,101058.16
2022-10-13T16:28:56.769Z,101061.94
2022-10-13T16:31:25.862Z,101067.03
2022-10-13T16:33:55.551Z,101052.63
2022-10-13T16:36:25.300Z,101066.53
2022-10-13T16:38:56.079Z,101063.97
2022-10-13T16:41:25.814Z,101059.19
2022-10-13T16:43:54.562Z,101058.50
2022-10-13T16:46:23.482Z,101054.44
2022-10-13T16:48:52.385Z,101049.66
2022-10-13T16:51:24.014Z,101052.22
2022-10-13T16:54:01.166Z,101051.13
2022-10-13T16:56:32.970Z,101057.31
2022-10-13T16:59:05.231Z,101045.50
2022-10-13T17:01:36.371Z,101045.50
2022-10-13T17:04:06.434Z,101049.66
2022-10-13T17:06:38.679Z,101031.34
2022-10-13T17:09:10.691Z,101043.50
2022-10-13T17:11:42.772Z,101048.28
2022-10-13T17:14:11.971Z,101047.59
2022-10-13T17:16:40.485Z,101046.75
2022-10-13T17:19:09.230Z,101044.53
2022-10-13T17:21:38.981Z,101038.97
2022-10-13T17:24:11.922Z,101046.09
2022-10-13T17:26:41.015Z,101048.84
2022-10-13T17:29:09.972Z,101042.09
2022-10-13T17:31:39.117Z,101038.00
2022-10-13T17:34:09.325Z,101039.94
2022-10-13T17:36:38.101Z,101029.81
2022-10-13T17:39:14.268Z,101029.22
2022-10-13T17:41:43.259Z,101040.31
2022-10-13T17:44:12.383Z,101029.44
2022-10-13T17:46:41.022Z,101028.13
2022-10-13T17:49:13.414Z,101031.53
2022-10-13T17:51:43.601Z,101025.75
2022-10-13T17:54:16.503Z,101030.22
2022-10-13T17:56:47.443Z,101029.59
2022-10-13T17:59:18.399Z,101031.84
2022-10-13T18:01:47.354Z,101033.00
2022-10-13T18:04:19.225Z,101031.91
2022-10-13T18:06:48.575Z,101033.00
2022-10-13T18:09:23.303Z,101038.16
2022-10-13T18:11:55.235Z,101039.22
2022-10-13T18:14:26.036Z,101032.53
2022-10-13T18:16:55.381Z,101026.94
2022-10-13T18:19:24.172Z,101029.78
2022-10-13T18:21:53.339Z,101024.84
2022-10-13T18:24:25.183Z,101022.16
2022-10-13T18:26:54.949Z,101020.66
2022-10-13T18:29:25.527Z,101022.94
2022-10-13T18:31:56.492Z,101031.00
2022-10-13T18:34:25.118Z,101025.84
2022-10-13T18:36:55.923Z,101026.00
2022-10-13T18:39:30.120Z,101025.00
2022-10-13T18:41:59.257Z,101021.69
2022-10-13T18:44:35.937Z,101018.28
2022-10-13T18:47:04.647Z,101016.66
2022-10-13T18:49:33.325Z,101004.69
2022-10-13T18:52:03.081Z,101012.47
2022-10-13T18:54:33.733Z,101005.69
2022-10-13T18:57:02.950Z,101011.78
2022-10-13T18:59:31.544Z,101010.63
2022-10-13T19:02:00.312Z,101013.41
2022-10-13T19:04:29.107Z,101010.00
2022-10-13T19:06:57.613Z,101003.06
2022-10-13T19:09:26.430Z,101001.50
2022-10-13T19:11:57.877Z,100994.91
2022-10-13T19:14:27.553Z,100999.59
2022-10-13T19:17:00.876Z,100983.69
2022-10-13T19:19:31.604Z,100990.47
2022-10-13T19:22:02.278Z,100989.91
2022-10-13T19:24:31.471Z,100989.13
2022-10-13T19:27:01.373Z,100983.13
2022-10-13T19:29:32.762Z,100976.38
2022-10-13T19:32:01.938Z,100978.09
2022-10-13T19:34:30.759Z,100984.34
2022-10-13T19:37:01.806Z,100987.03
2022-10-13T19:39:30.776Z,100992.38
2022-10-13T19:42:01.085Z,100989.97
2022-10-13T19:44:30.000Z,100989.06
2022-10-13T19:46:58.545Z,100987.41
2022-10-13T19:49:27.312Z,101001.53
2022-10-13T19:51:56.630Z,100999.19
2022-10-13T19:54:30.189Z,100999.81
2022-10-13T19:57:03.349Z,100991.53
2022-10-13T19:59:32.147Z,100997.06
2022-10-13T20:02:00.766Z,100998.19
2022-10-13T20:04:29.863Z,101005.25
2022-10-13T20:06:58.433Z,101004.66
2022-10-13T20:09:27.364Z,101003.38
2022-10-13T20:11:56.614Z,101001.13
2022-10-13T20:14:26.695Z,100998.56
2022-10-13T20:16:56.960Z,101002.91
2022-10-13T20:19:25.721Z,100993.88
2022-10-13T20:21:54.352Z,100989.97
2022-10-13T20:24:23.880Z,100987.53
2022-10-13T20:26:52.576Z,100991.28
2022-10-13T20:29:24.445Z,100988.00
2022-10-13T20:31:54.419Z,100983.72
2022-10-13T20:34:23.046Z,100985.31
2022-10-13T20:36:52.032Z,100988.91
2022-10-13T20:39:20.779Z,100984.22
2022-10-13T20:41:49.327Z,100987.28
2022-10-13T20:44:19.308Z,100982.38
2022-10-13T20:46:47.872Z,100988.38
2022-10-13T20:49:18.000Z,100987.81
2022-10-13T20:51:47.142Z,100980.44
2022-10-13T20:54:17.135Z,100967.53
2022-10-13T20:56:47.275Z,100966.03
2022-10-13T20:59:16.279Z,100965.50
2022-10-13T21:01:44.999Z,100965.72
2022-10-13T21:04:14.173Z,100966.72
2022-10-13T21:06:44.547Z,100961.69
2022-10-13T21:09:13.780Z,100965.03
2022-10-13T21:11:44.277Z,100959.00
2022-10-13T21:14:13.011Z,100959.81
2022-10-13T21:16:43.371Z,100959.94
2022-10-13T21:19:13.171Z,100957.31
2022-10-13T21:21:43.319Z,100955.50
2022-10-13T21:24:12.337Z,100961.50
2022-10-13T21:26:42.126Z,100957.06
2022-10-13T21:29:15.795Z,100958.59
2022-10-13T21:31:44.573Z,100960.22
2022-10-13T21:34:13.958Z,100959.91
2022-10-13T21:36:45.406Z,100964.41
2022-10-13T21:39:15.365Z,100968.78
2022-10-13T21:41:44.404Z,100962.81
2022-10-13T21:44:15.051Z,100967.28
2022-10-13T21:46:43.651Z,100959.88
2022-10-13T21:49:12.509Z,100967.72
2022-10-13T21:51:43.012Z,100956.78
2022-10-13T21:54:15.140Z,100953.59
2022-10-13T21:56:44.785Z,100952.25
2022-10-13T21:59:14.721Z,100954.94
2022-10-13T22:01:44.079Z,100953.25
2022-10-13T22:04:16.601Z,100946.44
2022-10-13T22:06:46.595Z,100940.31
2022-10-13T22:09:15.611Z,100938.66
2022-10-13T22:11:45.619Z,100933.47
2022-10-13T22:14:14.698Z,100938.66
2022-10-13T22:16:46.879Z,100932.59
2022-10-13T22:19:18.173Z,100937.03
2022-10-13T22:21:50.447Z,100942.13
2022-10-13T22:24:21.867Z,100939.47
2022-10-13T22:26:51.613Z,100935.94
2022-10-13T22:29:23.625Z,100929.88
2022-10-13T22:31:56.949Z,100929.09
2022-10-13T22:34:25.771Z,100933.44
2022-10-13T22:36:55.724Z,100933.47
2022-10-13T22:39:24.474Z,100932.69
2022-10-13T22:41:55.057Z,100937.03
2022-10-13T22:44:23.562Z,100928.47
2022-10-13T22:46:52.115Z,100937.88
2022-10-13T22:49:20.815Z,100932.69
2022-10-13T22:51:49.313Z,100935.38
2022-10-13T22:54:19.201Z,100931.00
2022-10-13T22:56:48.000Z,100936.25
2022-10-13T22:59:16.673Z,100927.47
2022-10-13T23:01:45.253Z,100932.69
2022-10-13T23:04:13.977Z,100930.97
2022-10-13T23:06:42.557Z,100931.75
2022-10-13T23:09:14.741Z,100927.19
2022-10-13T23:11:44.842Z,100929.53
2022-10-13T23:14:19.889Z,100930.59
2022-10-13T23:16:48.855Z,100928.03
2022-10-13T23:19:19.520Z,100925.47
2022-10-13T23:21:48.110Z,100920.19
2022-10-13T23:24:17.082Z,100922.88
2022-10-13T23:26:47.068Z,100914.09
2022-10-13T23:29:15.683Z,100915.72
2022-10-13T23:31:44.386Z,100917.53
2022-10-13T23:34:12.925Z,100913.09
2022-10-13T23:36:41.657Z,100909.75
2022-10-13T23:39:12.412Z,100910.50
2022-10-13T23:41:41.971Z,100918.44
2022-10-13T23:44:12.166Z,100905.53
2022-10-13T23:46:40.879Z,100904.72
2022-10-13T23:49:13.944Z,100909.66
2022-10-13T23:51:45.303Z,100903.50
2022-10-13T23:54:14.110Z,100890.78
2022-10-13T23:56:43.325Z,100903.69
2022-10-13T23:59:13.224Z,100895.06
